Impfondo, Congo

9:06 AM WAT on August 05, 2015 (GMT +0100)
Impfondo | | Change Station
CLOSE
Current Station
Airport
Location: Impfondo,
Elevation: 1073 ft
Nearby Weather Stations

Elev 1073 ft 1.62 °N, 18.07 °E | Updated 1 hour ago

Light Rain
Light Rain
72 °F
Feels Like 72 °F
N
2
Wind Variable Wind from Variable

Today
High -- | Low -- °F
--% Chance of Precip.
Yesterday
High -- | Low -- °F
Precip. -- in
5:48 AM 5:59 PM
Waning Gibbous, 69% visible
Pressure 30.01 in
Visibility 5.6 miles
Clouds Few 1000 ft
Few 2600 ft
Mostly Cloudy 10000 ft
Dew Point 72 °F
Humidity 100%
Rainfall 0.00 in
Snow Depth Not available.
UV 2 out of 12
Pollen Not available.
Air Quality Not available.
Flu Activity Not available.
METAR FCOI 050700Z VRB02KT 9000 -RA FEW010 FEW026CB BKN100 22/22 Q1016

More Conditions Fewer Conditions

Pressure 30.01 in
Visibility 5.6 miles
Clouds Few 1000 ft
Few 2600 ft
Mostly Cloudy 10000 ft
Dew Point 72 °F
Humidity 100%
Rainfall 0.00 in
Snow Depth Not available.
UV 2 out of 12
Pollen Not available.
Air Quality Not available.
Flu Activity Not available.
METAR FCOI 050700Z VRB02KT 9000 -RA FEW010 FEW026CB BKN100 22/22 Q1016

More Conditions Fewer Conditions

10-Day Weather Forecast

×

Almanac

Astronomy

Aug. 05, 2015 Rise Set
Actual Time
Civil Twilight
Nautical Twilight
Astronomical Twilight
Moon
Length of Visible Light
Length of Day
Tomorrow will be .
, % of the Moon is Illuminated

Today's Extremes

Country Highs Country Lows

Community

WunderPhotos

Upload Photos

1,844,105 photos uploaded!

WunderBlogs® & News

Nearby

Air Quality

  Air Quality AQ Index Pollutant
Not available.

Snow Depth

Station Depth Elevation

Earthquake Activity

City Distance Mag. Time & Date
Minimum magnitude displayed is 2.5.

Coastal Water Temperatures

Place Temperature

Stations

Nearby Weather Stations

Station Location Temp. Windchill Dew Point Humidity Wind Precip. Elev Updated Type